createdAt,value
2023-05-06T00:03:01.030Z,9.32
2023-05-06T00:23:02.772Z,9.23
2023-05-06T00:43:04.549Z,11.90
2023-05-06T01:03:06.154Z,11.55
2023-05-06T01:23:07.873Z,12.90
2023-05-06T01:43:09.362Z,15.80
2023-05-06T02:03:11.301Z,15.52
2023-05-06T02:23:13.108Z,18.98
2023-05-06T02:43:14.901Z,17.90
2023-05-06T03:03:16.423Z,17.85
2023-05-06T03:23:18.052Z,18.23
2023-05-06T03:43:20.525Z,15.65
2023-05-06T04:03:26.058Z,15.98
2023-05-06T04:23:28.809Z,15.07
2023-05-06T04:43:34.240Z,16.13
2023-05-06T05:03:43.938Z,14.25
2023-05-06T05:23:47.829Z,13.27
2023-05-06T05:43:49.541Z,13.10
2023-05-06T06:04:09.550Z,11.32
2023-05-06T06:24:29.606Z,14.73
2023-05-06T06:44:50.149Z,15.48
2023-05-06T07:05:29.131Z,14.90
2023-05-06T07:25:49.941Z,23.17
2023-05-06T07:46:09.874Z,20.30
2023-05-06T08:06:11.610Z,16.60
2023-05-06T08:26:13.131Z,18.02
2023-05-06T08:46:15.134Z,15.00
2023-05-06T09:06:16.712Z,11.35
2023-05-06T09:26:18.936Z,9.48
2023-05-06T09:46:20.580Z,3.42
2023-05-06T10:06:22.356Z,7.18
2023-05-06T10:26:23.943Z,12.18
2023-05-06T10:46:25.834Z,12.63
2023-05-06T11:06:27.309Z,12.10
2023-05-06T11:26:29.089Z,8.73
2023-05-06T11:46:30.615Z,6.15
2023-05-06T12:06:32.526Z,4.30
2023-05-06T12:26:41.380Z,3.00
2023-05-06T12:46:43.146Z,2.45
2023-05-06T13:06:44.897Z,4.32
2023-05-06T13:26:46.528Z,4.47
2023-05-06T13:46:48.066Z,4.35
2023-05-06T14:06:50.085Z,4.80
2023-05-06T14:26:53.063Z,2.85
2023-05-06T14:46:54.850Z,3.38
2023-05-06T15:06:56.634Z,3.22
2023-05-06T15:47:22.269Z,2.92
2023-05-06T16:07:28.201Z,1.50
2023-05-06T16:27:29.790Z,3.85
2023-05-06T16:47:31.701Z,3.90
2023-05-06T17:07:33.315Z,3.10
2023-05-06T17:27:35.036Z,4.03
2023-05-06T17:47:36.891Z,4.30
2023-05-06T18:07:39.346Z,5.50
2023-05-06T18:27:40.990Z,7.40
2023-05-06T18:47:42.770Z,9.75
2023-05-06T19:07:44.514Z,7.63
2023-05-06T19:27:46.588Z,9.73
2023-05-06T19:47:53.572Z,10.80
2023-05-06T20:07:57.526Z,11.32
2023-05-06T20:28:01.217Z,12.13
2023-05-06T20:48:03.251Z,12.98
2023-05-06T21:08:05.547Z,11.75
2023-05-06T21:28:11.015Z,9.40
2023-05-06T21:48:18.944Z,6.20
2023-05-06T22:08:23.970Z,6.22
2023-05-06T22:28:25.882Z,4.68
2023-05-06T22:48:50.683Z,4.40
2023-05-06T23:09:26.211Z,6.18
2023-05-06T23:29:50.541Z,5.43
